MSC Maeva — H9TF — position and weather

sailwx.info

Track history (hours):
 
Tides and Currents Weather Stations Pressure Air Temp Water Temp Dewpoint Dewpoint Depression Visibility Wind Speed Wind Dir Waves Ship Positions

MSC Maeva

Last reported at 2015-Sep-03 16:07 UTC. Time now 2015-Sep-04 12:25 UTC.
Position S 20°30' E 057°49'.

Type: Ship. MMSI: 371851000.

Date/timePositionNaut miles runAvg speedWind from/ knotsBaromVisibWave heightAir tempDewpointWater temp
2015-Sep-03 16:07S 20°30' E 057°49'  
2015-Aug-30 20:16S 29°44' E 031°42'1115.3
2015-Aug-30 19:33S 29°46' E 031°30'1817.6
2015-Aug-30 18:33S 29°50' E 031°10'8 8.0
2015-Aug-30 17:33S 29°53' E 031°02'0 0.4
2015-Aug-30 16:33S 29°53' E 031°01'0 0.0
2015-Aug-30 15:33S 29°53' E 031°01'0 0.0
2015-Aug-30 14:33S 29°53' E 031°01'0 0.0
2015-Aug-30 13:33S 29°53' E 031°01'0 0.0
2015-Aug-30 12:33S 29°53' E 031°01'0 0.0
2015-Aug-30 11:33S 29°53' E 031°01'0 0.0
2015-Aug-30 10:33S 29°53' E 031°01'0 0.0
2015-Aug-30 09:33S 29°53' E 031°01'0 0.0
2015-Aug-30 08:33S 29°53' E 031°01'0 0.0
2015-Aug-30 07:33S 29°53' E 031°01'0 0.0
2015-Aug-30 06:33S 29°53' E 031°01'0 0.0
2015-Aug-30 05:33S 29°53' E 031°01'0 0.0
2015-Aug-30 04:33S 29°53' E 031°01'0 0.0
2015-Aug-30 03:33S 29°53' E 031°01'0 0.0
2015-Aug-30 02:33S 29°53' E 031°01'0 0.0
2015-Aug-30 01:33S 29°53' E 031°01'0 0.0
2015-Aug-30 00:33S 29°53' E 031°01'0 0.0
2015-Aug-29 23:33S 29°53' E 031°01'0 0.0
2015-Aug-29 22:33S 29°53' E 031°01'0 0.0
2015-Aug-29 21:33S 29°53' E 031°01'0 0.0
2015-Aug-29 20:33S 29°53' E 031°01'0 0.0
2015-Aug-29 19:33S 29°53' E 031°01'0 0.0
2015-Aug-29 18:33S 29°53' E 031°01'0 0.0
2015-Aug-29 17:33S 29°53' E 031°01'0 0.0
2015-Aug-29 16:33S 29°53' E 031°01'0 0.0
2015-Aug-29 15:33S 29°53' E 031°01'0 0.0
2015-Aug-29 14:33S 29°53' E 031°01'0 0.0
2015-Aug-29 13:33S 29°53' E 031°01'0 0.0
2015-Aug-29 12:34S 29°53' E 031°01'0 0.0
2015-Aug-29 11:33S 29°53' E 031°01'0 0.0
2015-Aug-29 10:33S 29°53' E 031°01'0 0.0
2015-Aug-29 09:33S 29°53' E 031°01'0 0.0
2015-Aug-29 08:33S 29°53' E 031°01'0 0.0
2015-Aug-29 07:33S 29°53' E 031°01'0 0.0
2015-Aug-29 06:33S 29°53' E 031°01'0 0.0
2015-Aug-29 05:33S 29°53' E 031°01'0 0.0
2015-Aug-29 04:33S 29°53' E 031°01'0 0.0
2015-Aug-29 03:33S 29°53' E 031°01'0 0.0
2015-Aug-29 02:33S 29°53' E 031°01'0 0.0
2015-Aug-29 01:33S 29°53' E 031°01'0 0.0
2015-Aug-29 00:33S 29°53' E 031°01'0 0.0
2015-Aug-28 23:33S 29°53' E 031°01'0 0.0
2015-Aug-28 22:33S 29°53' E 031°01'0 0.0
2015-Aug-28 21:33S 29°53' E 031°01'0 0.0
2015-Aug-28 20:33S 29°53' E 031°01'0 0.0
2015-Aug-28 19:33S 29°53' E 031°01'0 0.0
2015-Aug-28 18:33S 29°53' E 031°01'0 0.0
2015-Aug-28 17:33S 29°53' E 031°01'0 0.0
2015-Aug-28 16:33S 29°53' E 031°01'0 0.0
2015-Aug-28 15:33S 29°53' E 031°01'0 0.0
2015-Aug-28 14:33S 29°53' E 031°01'0 0.0
2015-Aug-28 13:33S 29°53' E 031°01'0 0.0
2015-Aug-28 12:33S 29°53' E 031°01'5 4.6
2015-Aug-28 11:33S 29°50' E 031°05'2 1.8
2015-Aug-28 10:33S 29°49' E 031°07'2 1.7
2015-Aug-28 09:33S 29°51' E 031°08'3 2.9
2015-Aug-28 08:33S 29°53' E 031°11'1111.4
2015-Aug-28 07:33S 30°04' E 031°14'1616.0
2015-Aug-28 06:33S 30°18' E 031°05'1716.7
2015-Aug-28 05:33S 30°33' E 030°57'1717.0
2015-Aug-28 04:33S 30°48' E 030°47'1817.0
2015-Aug-28 03:30S 31°03' E 030°37'  
Track history (hours):
 
Tides and Currents Weather Stations Pressure Air Temp Water Temp Dewpoint Dewpoint Depression Visibility Wind Speed Wind Dir Waves Ship Positions

MSC Maeva

Last reported at 2015-Sep-03 16:07 UTC. Time now 2015-Sep-04 12:25 UTC.
Position S 20°30' E 057°49'.

Type: Ship. MMSI: 371851000.

Date/timePositionNaut miles runAvg speedWind from/ knotsBaromVisibWave heightAir tempDewpointWater temp
2015-Sep-03 16:07S 20°30' E 057°49'  
2015-Aug-30 20:16S 29°44' E 031°42'1115.3
2015-Aug-30 19:33S 29°46' E 031°30'1817.6
2015-Aug-30 18:33S 29°50' E 031°10'8 8.0
2015-Aug-30 17:33S 29°53' E 031°02'0 0.4
2015-Aug-30 16:33S 29°53' E 031°01'0 0.0
2015-Aug-30 15:33S 29°53' E 031°01'0 0.0
2015-Aug-30 14:33S 29°53' E 031°01'0 0.0
2015-Aug-30 13:33S 29°53' E 031°01'0 0.0
2015-Aug-30 12:33S 29°53' E 031°01'0 0.0
2015-Aug-30 11:33S 29°53' E 031°01'0 0.0
2015-Aug-30 10:33S 29°53' E 031°01'0 0.0
2015-Aug-30 09:33S 29°53' E 031°01'0 0.0
2015-Aug-30 08:33S 29°53' E 031°01'0 0.0
2015-Aug-30 07:33S 29°53' E 031°01'0 0.0
2015-Aug-30 06:33S 29°53' E 031°01'0 0.0
2015-Aug-30 05:33S 29°53' E 031°01'0 0.0
2015-Aug-30 04:33S 29°53' E 031°01'0 0.0
2015-Aug-30 03:33S 29°53' E 031°01'0 0.0
2015-Aug-30 02:33S 29°53' E 031°01'0 0.0
2015-Aug-30 01:33S 29°53' E 031°01'0 0.0
2015-Aug-30 00:33S 29°53' E 031°01'0 0.0
2015-Aug-29 23:33S 29°53' E 031°01'0 0.0
2015-Aug-29 22:33S 29°53' E 031°01'0 0.0
2015-Aug-29 21:33S 29°53' E 031°01'0 0.0
2015-Aug-29 20:33S 29°53' E 031°01'0 0.0
2015-Aug-29 19:33S 29°53' E 031°01'0 0.0
2015-Aug-29 18:33S 29°53' E 031°01'0 0.0
2015-Aug-29 17:33S 29°53' E 031°01'0 0.0
2015-Aug-29 16:33S 29°53' E 031°01'0 0.0
2015-Aug-29 15:33S 29°53' E 031°01'0 0.0
2015-Aug-29 14:33S 29°53' E 031°01'0 0.0
2015-Aug-29 13:33S 29°53' E 031°01'0 0.0
2015-Aug-29 12:34S 29°53' E 031°01'0 0.0
2015-Aug-29 11:33S 29°53' E 031°01'0 0.0
2015-Aug-29 10:33S 29°53' E 031°01'0 0.0
2015-Aug-29 09:33S 29°53' E 031°01'0 0.0
2015-Aug-29 08:33S 29°53' E 031°01'0 0.0
2015-Aug-29 07:33S 29°53' E 031°01'0 0.0
2015-Aug-29 06:33S 29°53' E 031°01'0 0.0
2015-Aug-29 05:33S 29°53' E 031°01'0 0.0
2015-Aug-29 04:33S 29°53' E 031°01'0 0.0
2015-Aug-29 03:33S 29°53' E 031°01'0 0.0
2015-Aug-29 02:33S 29°53' E 031°01'0 0.0
2015-Aug-29 01:33S 29°53' E 031°01'0 0.0
2015-Aug-29 00:33S 29°53' E 031°01'0 0.0
2015-Aug-28 23:33S 29°53' E 031°01'0 0.0
2015-Aug-28 22:33S 29°53' E 031°01'0 0.0
2015-Aug-28 21:33S 29°53' E 031°01'0 0.0
2015-Aug-28 20:33S 29°53' E 031°01'0 0.0
2015-Aug-28 19:33S 29°53' E 031°01'0 0.0
2015-Aug-28 18:33S 29°53' E 031°01'0 0.0
2015-Aug-28 17:33S 29°53' E 031°01'0 0.0
2015-Aug-28 16:33S 29°53' E 031°01'0 0.0
2015-Aug-28 15:33S 29°53' E 031°01'0 0.0
2015-Aug-28 14:33S 29°53' E 031°01'0 0.0
2015-Aug-28 13:33S 29°53' E 031°01'0 0.0
2015-Aug-28 12:33S 29°53' E 031°01'5 4.6
2015-Aug-28 11:33S 29°50' E 031°05'2 1.8
2015-Aug-28 10:33S 29°49' E 031°07'2 1.7
2015-Aug-28 09:33S 29°51' E 031°08'3 2.9
2015-Aug-28 08:33S 29°53' E 031°11'1111.4
2015-Aug-28 07:33S 30°04' E 031°14'1616.0
2015-Aug-28 06:33S 30°18' E 031°05'1716.7
2015-Aug-28 05:33S 30°33' E 030°57'1717.0
2015-Aug-28 04:33S 30°48' E 030°47'1817.0
2015-Aug-28 03:30S 31°03' E 030°37'  

Dump ship's entire track history